createdAt,value
2019-05-11T00:02:18.460Z,13.50
2019-05-11T00:04:45.722Z,13.50
2019-05-11T00:07:15.234Z,13.50
2019-05-11T00:09:57.100Z,13.50
2019-05-11T00:12:11.362Z,13.40
2019-05-11T00:14:38.734Z,13.30
2019-05-11T00:17:07.334Z,13.30
2019-05-11T00:19:34.757Z,13.40
2019-05-11T00:22:07.753Z,13.30
2019-05-11T00:24:36.899Z,13.30
2019-05-11T00:27:04.299Z,13.30
2019-05-11T00:29:31.467Z,13.40
2019-05-11T00:31:58.529Z,13.40
2019-05-11T00:34:25.843Z,13.30
2019-05-11T00:36:52.985Z,13.30
2019-05-11T00:39:19.854Z,13.10
2019-05-11T00:41:48.921Z,13.10
2019-05-11T00:44:17.732Z,13.00
2019-05-11T00:46:46.790Z,13.10
2019-05-11T00:49:14.469Z,13.20
2019-05-11T00:51:41.767Z,13.20
2019-05-11T00:54:09.150Z,13.30
2019-05-11T00:56:36.222Z,13.30
2019-05-11T00:59:04.964Z,13.20
2019-05-11T01:01:32.386Z,13.20
2019-05-11T01:03:59.200Z,13.10
2019-05-11T01:06:27.365Z,13.10
2019-05-11T01:09:01.292Z,13.20
2019-05-11T01:11:30.519Z,13.20
2019-05-11T01:13:57.766Z,13.20
2019-05-11T01:16:24.844Z,13.10
2019-05-11T01:18:52.592Z,13.20
2019-05-11T01:21:19.955Z,13.10
2019-05-11T01:23:47.047Z,13.20
2019-05-11T01:26:14.430Z,13.30
2019-05-11T01:28:41.380Z,13.10
2019-05-11T01:31:08.603Z,12.90
2019-05-11T01:33:45.227Z,13.00
2019-05-11T01:36:12.182Z,13.00
2019-05-11T01:38:39.208Z,12.90
2019-05-11T01:41:06.013Z,12.80
2019-05-11T01:43:33.155Z,12.80
2019-05-11T01:46:00.767Z,12.90
2019-05-11T01:48:29.921Z,13.10
2019-05-11T01:51:04.281Z,13.20
2019-05-11T01:53:30.875Z,13.10
2019-05-11T01:55:57.743Z,13.20
2019-05-11T01:58:24.987Z,13.20
2019-05-11T02:00:52.093Z,13.20
2019-05-11T02:03:23.182Z,13.30
2019-05-11T02:05:51.800Z,13.20
2019-05-11T02:08:20.791Z,13.10
2019-05-11T02:10:50.924Z,13.20
2019-05-11T02:13:19.936Z,13.30
2019-05-11T02:16:06.417Z,13.30
2019-05-11T02:18:34.137Z,13.20
2019-05-11T02:21:01.046Z,13.10
2019-05-11T02:23:27.910Z,13.20
2019-05-11T02:25:55.087Z,13.20
2019-05-11T02:28:22.530Z,13.20
2019-05-11T02:30:51.965Z,13.20
2019-05-11T02:33:37.861Z,13.20
2019-05-11T02:36:05.038Z,13.20
2019-05-11T02:38:34.859Z,13.00
2019-05-11T02:41:02.194Z,13.10
2019-05-11T02:43:31.157Z,13.10
2019-05-11T02:46:20.016Z,12.90
2019-05-11T02:48:47.083Z,12.80
2019-05-11T02:51:22.462Z,12.70
2019-05-11T02:53:49.400Z,12.60
2019-05-11T02:56:18.337Z,12.50
2019-05-11T02:58:45.588Z,12.50
2019-05-11T03:01:12.630Z,12.30
2019-05-11T03:03:41.571Z,12.40
2019-05-11T03:06:08.596Z,12.50
2019-05-11T03:08:37.471Z,12.60
2019-05-11T03:11:09.864Z,12.60
2019-05-11T03:13:37.209Z,12.60
2019-05-11T03:16:08.762Z,12.60
2019-05-11T03:18:39.403Z,12.50
2019-05-11T03:24:16.286Z,12.70
2019-05-11T03:26:57.343Z,12.70
2019-05-11T03:29:24.318Z,12.60
2019-05-11T03:31:51.415Z,12.70
2019-05-11T03:34:18.832Z,12.70
2019-05-11T03:36:46.100Z,12.60
2019-05-11T03:39:23.137Z,12.70
2019-05-11T03:42:13.851Z,12.80
2019-05-11T03:44:48.849Z,12.80
2019-05-11T03:47:17.955Z,12.70
2019-05-11T03:49:45.208Z,12.60
2019-05-11T03:52:12.211Z,12.70
2019-05-11T03:54:39.259Z,12.60
2019-05-11T03:57:06.426Z,12.60
2019-05-11T03:59:33.835Z,12.50
2019-05-11T04:02:00.624Z,12.40
2019-05-11T04:04:27.486Z,12.30
2019-05-11T04:06:54.651Z,12.30
2019-05-11T04:09:21.259Z,12.20
2019-05-11T04:11:47.876Z,12.30
2019-05-11T04:14:19.711Z,12.20
2019-05-11T04:16:57.675Z,12.40
2019-05-11T04:19:25.017Z,12.50
2019-05-11T04:21:52.208Z,12.60
2019-05-11T04:24:19.114Z,12.60
2019-05-11T04:26:46.237Z,12.60
2019-05-11T04:29:13.036Z,12.50
2019-05-11T04:31:39.931Z,12.50
2019-05-11T04:34:07.026Z,12.50
2019-05-11T04:36:37.583Z,12.50
2019-05-11T04:39:06.031Z,12.10
2019-05-11T04:41:32.930Z,12.20
2019-05-11T04:43:59.840Z,12.00
2019-05-11T04:46:26.750Z,11.90
2019-05-11T04:48:53.535Z,12.00
2019-05-11T04:51:20.894Z,11.90
2019-05-11T04:53:47.597Z,12.00
2019-05-11T04:56:16.137Z,11.90
2019-05-11T04:58:42.822Z,11.90
2019-05-11T05:01:09.620Z,12.00
2019-05-11T05:03:40.771Z,11.70
2019-05-11T05:06:22.333Z,11.60
2019-05-11T05:08:33.829Z,11.60
2019-05-11T05:11:01.732Z,11.70
2019-05-11T05:13:29.525Z,11.60
2019-05-11T05:15:57.310Z,11.60
2019-05-11T05:18:24.318Z,11.80
2019-05-11T05:20:51.122Z,11.90
2019-05-11T05:23:17.925Z,11.90
2019-05-11T05:25:45.001Z,11.90
2019-05-11T05:28:11.900Z,11.70
2019-05-11T05:30:38.670Z,11.60
2019-05-11T05:33:05.356Z,11.50
2019-05-11T05:35:32.473Z,11.50
2019-05-11T05:37:59.435Z,11.80
2019-05-11T05:40:26.755Z,11.90
2019-05-11T05:42:54.002Z,11.90
2019-05-11T05:45:20.978Z,11.90
2019-05-11T05:47:47.746Z,11.90
2019-05-11T05:50:14.591Z,11.90
2019-05-11T05:52:41.398Z,12.10
2019-05-11T05:55:08.595Z,11.80
2019-05-11T05:57:35.461Z,11.80
2019-05-11T06:00:02.991Z,11.80
2019-05-11T06:02:29.777Z,11.90
2019-05-11T06:04:56.467Z,12.00
2019-05-11T06:07:23.397Z,12.00
2019-05-11T06:09:50.496Z,12.10
2019-05-11T06:12:17.359Z,12.00
2019-05-11T06:14:43.995Z,12.20
2019-05-11T06:17:10.685Z,12.20
2019-05-11T06:19:37.435Z,12.20
2019-05-11T06:22:04.505Z,12.10
2019-05-11T06:24:31.362Z,12.40
2019-05-11T06:26:58.687Z,12.50
2019-05-11T06:29:26.521Z,12.80
2019-05-11T06:31:53.726Z,12.80
2019-05-11T06:34:20.927Z,12.90
2019-05-11T06:36:48.039Z,13.00
2019-05-11T06:39:15.083Z,13.10
2019-05-11T06:41:42.407Z,13.20
2019-05-11T06:44:09.817Z,13.30
2019-05-11T06:46:37.243Z,13.40
2019-05-11T06:49:08.302Z,13.50
2019-05-11T06:51:35.606Z,13.50
2019-05-11T06:54:05.666Z,13.50
2019-05-11T06:56:34.161Z,13.60
2019-05-11T06:59:04.180Z,13.70
2019-05-11T07:01:32.071Z,13.70
2019-05-11T07:04:01.625Z,13.80
2019-05-11T07:06:30.634Z,13.90
2019-05-11T07:08:57.412Z,14.00
2019-05-11T07:11:26.628Z,14.00
2019-05-11T07:13:54.348Z,14.10
2019-05-11T07:16:23.572Z,14.10
2019-05-11T07:19:14.616Z,14.10
2019-05-11T07:21:45.135Z,14.00
2019-05-11T07:27:04.478Z,14.20
2019-05-11T07:29:34.988Z,14.60
2019-05-11T07:32:19.684Z,14.50
2019-05-11T07:34:38.390Z,14.50
2019-05-11T07:37:19.140Z,14.70
2019-05-11T07:39:48.707Z,14.70
2019-05-11T07:42:18.179Z,14.90
2019-05-11T07:44:47.960Z,15.00
2019-05-11T07:47:14.764Z,15.10
2019-05-11T07:49:42.062Z,15.20
2019-05-11T07:52:09.594Z,15.30
2019-05-11T07:54:38.567Z,15.40
2019-05-11T07:57:07.749Z,15.50
2019-05-11T07:59:48.636Z,15.60
2019-05-11T08:02:17.803Z,15.60
2019-05-11T08:04:44.806Z,15.70
2019-05-11T08:07:17.932Z,15.80
2019-05-11T08:09:44.764Z,15.90
2019-05-11T08:12:12.123Z,16.10
2019-05-11T08:14:55.355Z,16.20
2019-05-11T08:17:08.722Z,16.30
2019-05-11T08:19:38.364Z,16.50
2019-05-11T08:22:12.676Z,16.60
2019-05-11T08:24:39.510Z,16.70
2019-05-11T08:27:08.243Z,17.10
2019-05-11T08:29:35.175Z,17.40
2019-05-11T08:32:02.131Z,17.90
2019-05-11T08:34:28.799Z,18.40
2019-05-11T08:36:58.203Z,19.20
2019-05-11T08:39:24.512Z,19.90
2019-05-11T08:41:51.166Z,20.80
2019-05-11T08:44:18.887Z,21.60
2019-05-11T08:46:47.869Z,22.00
2019-05-11T08:49:15.906Z,22.10
2019-05-11T08:51:44.686Z,22.00
2019-05-11T08:54:12.318Z,21.80
2019-05-11T08:56:39.360Z,21.70
2019-05-11T08:59:07.986Z,20.80
2019-05-11T09:01:35.894Z,20.00
2019-05-11T09:04:02.927Z,19.50
2019-05-11T09:06:30.200Z,19.10
2019-05-11T09:08:58.368Z,18.80
2019-05-11T09:11:28.189Z,18.50
2019-05-11T09:13:57.705Z,18.10
2019-05-11T09:16:23.787Z,17.90
2019-05-11T09:18:50.970Z,17.90
2019-05-11T09:21:19.006Z,18.00
2019-05-11T09:23:48.378Z,18.20
2019-05-11T09:26:15.290Z,18.10
2019-05-11T09:28:44.286Z,17.80
2019-05-11T09:31:12.154Z,18.60
2019-05-11T09:33:38.872Z,19.80
2019-05-11T09:36:05.871Z,20.50
2019-05-11T09:38:32.449Z,21.70
2019-05-11T09:41:01.067Z,21.70
2019-05-11T09:43:28.392Z,22.40
2019-05-11T09:45:55.211Z,23.20
2019-05-11T09:48:21.897Z,23.90
2019-05-11T09:50:49.552Z,24.20
2019-05-11T09:53:17.728Z,24.10
2019-05-11T09:55:44.893Z,24.60
2019-05-11T09:58:11.725Z,25.50
2019-05-11T10:00:38.981Z,24.80
2019-05-11T10:03:08.047Z,24.80
2019-05-11T10:05:34.308Z,24.60
2019-05-11T10:08:00.935Z,23.70
2019-05-11T10:10:28.981Z,23.20
2019-05-11T10:12:59.064Z,24.00
2019-05-11T10:15:27.963Z,24.10
2019-05-11T10:17:54.762Z,23.20
2019-05-11T10:20:22.631Z,22.30
2019-05-11T10:22:50.391Z,21.50
2019-05-11T10:25:19.534Z,22.10
2019-05-11T10:27:48.214Z,23.30
2019-05-11T10:30:15.348Z,24.70
2019-05-11T10:32:42.430Z,25.30
2019-05-11T10:35:09.399Z,24.00
2019-05-11T10:37:38.701Z,23.20
2019-05-11T10:40:09.519Z,23.20
2019-05-11T10:42:45.083Z,24.50
2019-05-11T10:45:14.795Z,26.30
2019-05-11T10:47:41.660Z,27.40
2019-05-11T10:50:08.841Z,25.90
2019-05-11T10:52:37.696Z,25.90
2019-05-11T10:55:04.437Z,26.40
2019-05-11T10:57:31.235Z,25.90
2019-05-11T10:59:59.235Z,25.00
2019-05-11T11:02:27.755Z,25.60
2019-05-11T11:04:54.538Z,26.50
2019-05-11T11:07:22.227Z,25.90
2019-05-11T11:09:49.206Z,26.40
2019-05-11T11:12:16.017Z,27.10
2019-05-11T11:14:42.417Z,26.50
2019-05-11T11:17:09.192Z,26.10
2019-05-11T11:19:38.155Z,26.20
2019-05-11T11:22:30.318Z,26.70
2019-05-11T11:24:33.412Z,26.70
2019-05-11T11:27:01.080Z,25.80
2019-05-11T11:29:28.807Z,25.60
2019-05-11T11:31:55.510Z,25.00
2019-05-11T11:34:22.038Z,24.80
2019-05-11T11:36:49.846Z,24.40
2019-05-11T11:39:18.547Z,23.50
2019-05-11T11:41:44.766Z,23.30
2019-05-11T11:44:11.428Z,22.80
2019-05-11T11:46:50.874Z,22.60
2019-05-11T11:49:08.273Z,22.80
2019-05-11T11:51:34.784Z,23.00
2019-05-11T11:54:01.249Z,23.10
2019-05-11T11:56:28.419Z,23.20
2019-05-11T11:58:55.389Z,23.20
2019-05-11T12:01:21.858Z,22.70
2019-05-11T12:03:49.049Z,22.50
2019-05-11T12:06:18.518Z,22.60
2019-05-11T12:08:45.436Z,22.30
2019-05-11T12:11:11.886Z,22.30
2019-05-11T12:13:38.603Z,22.20
2019-05-11T12:16:07.271Z,22.20
2019-05-11T12:18:34.496Z,22.40
2019-05-11T12:21:01.151Z,22.60
2019-05-11T12:23:28.496Z,22.50
2019-05-11T12:25:55.265Z,22.30
2019-05-11T12:28:21.826Z,22.30
2019-05-11T12:30:50.672Z,22.30
2019-05-11T12:33:18.729Z,22.20
2019-05-11T12:35:45.594Z,22.30
2019-05-11T12:38:12.304Z,22.20
2019-05-11T12:40:39.037Z,22.00
2019-05-11T12:43:07.523Z,22.00
2019-05-11T12:45:34.332Z,21.80
2019-05-11T12:48:01.598Z,21.30
2019-05-11T12:50:28.751Z,21.10
2019-05-11T12:52:56.663Z,21.20
2019-05-11T12:55:23.962Z,21.40
2019-05-11T12:57:50.480Z,21.50
2019-05-11T13:00:21.483Z,21.70
2019-05-11T13:02:53.645Z,21.60
2019-05-11T13:05:22.661Z,21.60
2019-05-11T13:07:52.647Z,21.60
2019-05-11T13:10:25.172Z,21.80
2019-05-11T13:12:52.187Z,21.90
2019-05-11T13:15:19.016Z,22.00
2019-05-11T13:17:45.644Z,21.90
2019-05-11T13:20:13.119Z,22.20
2019-05-11T13:22:40.199Z,22.00
2019-05-11T13:25:08.619Z,21.90
2019-05-11T13:27:35.783Z,22.00
2019-05-11T13:30:05.232Z,22.10
2019-05-11T13:32:32.029Z,22.10
2019-05-11T13:34:58.727Z,22.20
2019-05-11T13:37:28.140Z,22.20
2019-05-11T13:39:55.040Z,22.30
2019-05-11T13:42:23.303Z,22.30
2019-05-11T13:44:49.905Z,22.10
2019-05-11T13:47:18.007Z,22.20
2019-05-11T13:49:44.941Z,22.10
2019-05-11T13:52:11.648Z,21.90
2019-05-11T13:54:38.136Z,21.40
2019-05-11T13:57:04.922Z,21.10
2019-05-11T13:59:32.029Z,21.10
2019-05-11T14:01:58.778Z,20.90
2019-05-11T14:04:25.311Z,21.00
2019-05-11T14:06:52.164Z,21.00
2019-05-11T14:09:18.731Z,21.00
2019-05-11T14:11:47.355Z,20.80
2019-05-11T14:14:13.785Z,20.60
2019-05-11T14:16:40.390Z,20.70
2019-05-11T14:19:08.872Z,20.70
2019-05-11T14:21:35.670Z,20.70
2019-05-11T14:24:02.486Z,20.70
2019-05-11T14:26:29.277Z,20.70
2019-05-11T14:28:57.771Z,20.70
2019-05-11T14:31:24.583Z,20.70
2019-05-11T14:33:51.395Z,20.90
2019-05-11T14:36:18.538Z,20.90
2019-05-11T14:38:45.795Z,20.90
2019-05-11T14:41:12.519Z,20.80
2019-05-11T14:43:39.213Z,20.50
2019-05-11T14:46:08.543Z,20.60
2019-05-11T14:48:35.451Z,20.70
2019-05-11T14:51:02.139Z,20.90
2019-05-11T14:53:28.983Z,20.70
2019-05-11T14:55:55.770Z,20.70
2019-05-11T14:58:25.331Z,20.60
2019-05-11T15:00:52.064Z,20.70
2019-05-11T15:03:20.552Z,20.40
2019-05-11T15:05:49.462Z,20.50
2019-05-11T15:08:18.049Z,20.50
2019-05-11T15:10:45.196Z,20.50
2019-05-11T15:13:12.223Z,20.60
2019-05-11T15:15:39.562Z,20.50
2019-05-11T15:18:08.414Z,20.40
2019-05-11T15:20:35.034Z,20.40
2019-05-11T15:23:03.704Z,20.30
2019-05-11T15:25:30.498Z,20.20
2019-05-11T15:27:58.463Z,20.10
2019-05-11T15:30:25.563Z,20.20
2019-05-11T15:32:52.516Z,19.90
2019-05-11T15:35:19.232Z,19.80
2019-05-11T15:37:47.921Z,19.90
2019-05-11T15:40:18.657Z,19.80
2019-05-11T15:42:48.337Z,19.90
2019-05-11T15:45:14.850Z,19.90
2019-05-11T15:47:42.911Z,19.80
2019-05-11T15:50:12.448Z,19.50
2019-05-11T15:52:40.120Z,19.10
2019-05-11T15:55:08.150Z,19.20
2019-05-11T15:57:35.330Z,19.20
2019-05-11T16:00:03.755Z,19.20
2019-05-11T16:02:30.837Z,19.30
2019-05-11T16:04:58.750Z,19.10
2019-05-11T16:07:28.030Z,19.20
2019-05-11T16:09:54.240Z,19.20
2019-05-11T16:12:21.298Z,19.10
2019-05-11T16:14:49.660Z,19.00
2019-05-11T16:17:16.611Z,18.80
2019-05-11T16:19:44.131Z,18.90
2019-05-11T16:22:12.199Z,19.00
2019-05-11T16:24:40.055Z,19.10
2019-05-11T16:27:08.784Z,19.30
2019-05-11T16:29:38.303Z,19.40
2019-05-11T16:32:21.589Z,19.30
2019-05-11T16:34:49.665Z,19.20
2019-05-11T16:37:18.395Z,19.40
2019-05-11T16:39:47.405Z,19.60
2019-05-11T16:42:14.223Z,19.50
2019-05-11T16:44:41.575Z,19.50
2019-05-11T16:47:08.563Z,19.50
2019-05-11T16:49:38.466Z,19.60
2019-05-11T16:52:05.271Z,19.60
2019-05-11T16:54:32.385Z,19.50
2019-05-11T16:56:59.549Z,19.40
2019-05-11T16:59:27.814Z,19.50
2019-05-11T17:01:55.086Z,19.40
2019-05-11T17:04:22.356Z,19.20
2019-05-11T17:06:49.339Z,19.20
2019-05-11T17:09:18.035Z,19.30
2019-05-11T17:11:44.874Z,19.40
2019-05-11T17:14:11.711Z,19.40
2019-05-11T17:16:41.348Z,19.30
2019-05-11T17:19:13.822Z,19.10
2019-05-11T17:21:41.200Z,18.90
2019-05-11T17:24:10.613Z,18.90
2019-05-11T17:26:38.676Z,17.60
2019-05-11T17:29:07.019Z,18.70
2019-05-11T17:31:34.152Z,18.90
2019-05-11T17:34:02.927Z,19.00
2019-05-11T17:36:30.761Z,19.10
2019-05-11T17:38:58.965Z,19.20
2019-05-11T17:41:43.888Z,19.00
2019-05-11T17:44:19.006Z,19.00
2019-05-11T17:46:45.948Z,19.10
2019-05-11T17:49:12.860Z,19.10
2019-05-11T17:51:39.644Z,19.10
2019-05-11T17:54:07.912Z,19.20
2019-05-11T17:56:38.278Z,19.20
2019-05-11T17:59:04.943Z,19.10
2019-05-11T18:01:31.867Z,19.00
2019-05-11T18:03:58.952Z,19.00
2019-05-11T18:06:26.032Z,19.00
2019-05-11T18:08:53.563Z,18.90
2019-05-11T18:11:20.699Z,18.70
2019-05-11T18:13:48.288Z,18.50
2019-05-11T18:16:15.426Z,18.50
2019-05-11T18:18:45.136Z,18.60
2019-05-11T18:21:12.267Z,18.60
2019-05-11T18:23:39.116Z,18.50
2019-05-11T18:26:08.641Z,18.20
2019-05-11T18:28:37.801Z,18.20
2019-05-11T18:31:04.929Z,18.30
2019-05-11T18:33:32.224Z,18.30
2019-05-11T18:35:58.921Z,18.20
2019-05-11T18:38:27.608Z,18.10
2019-05-11T18:40:58.041Z,18.10
2019-05-11T18:43:27.764Z,18.00
2019-05-11T18:45:54.323Z,17.90
2019-05-11T18:48:21.470Z,17.80
2019-05-11T18:50:49.211Z,17.60
2019-05-11T18:53:18.664Z,17.60
2019-05-11T18:55:48.448Z,17.60
2019-05-11T18:58:18.144Z,17.50
2019-05-11T19:00:44.341Z,17.50
2019-05-11T19:03:11.233Z,17.40
2019-05-11T19:05:38.680Z,17.20
2019-05-11T19:08:05.666Z,17.10
2019-05-11T19:10:33.209Z,17.20
2019-05-11T19:13:00.150Z,17.20
2019-05-11T19:15:32.199Z,17.10
2019-05-11T19:18:14.606Z,17.00
2019-05-11T19:20:45.862Z,17.20
2019-05-11T19:23:37.888Z,17.00
2019-05-11T19:26:10.709Z,16.70
2019-05-11T19:28:39.803Z,16.60
2019-05-11T19:31:11.302Z,16.60
2019-05-11T19:33:45.780Z,16.50
2019-05-11T19:36:13.024Z,16.70
2019-05-11T19:38:40.386Z,16.90
2019-05-11T19:41:08.093Z,16.90
2019-05-11T19:43:35.331Z,16.60
2019-05-11T19:46:02.771Z,16.60
2019-05-11T19:48:29.665Z,16.40
2019-05-11T19:51:06.593Z,16.50
2019-05-11T19:53:27.920Z,16.40
2019-05-11T19:55:54.528Z,16.20
2019-05-11T19:58:23.282Z,16.40
2019-05-11T20:00:50.303Z,16.40
2019-05-11T20:03:19.460Z,16.40
2019-05-11T20:05:48.590Z,16.30
2019-05-11T20:08:18.251Z,16.30
2019-05-11T20:13:31.204Z,15.80
2019-05-11T20:15:58.629Z,16.00
2019-05-11T20:18:28.776Z,16.10
2019-05-11T20:20:55.865Z,16.10
2019-05-11T20:23:22.839Z,16.20
2019-05-11T20:26:08.742Z,16.20
2019-05-11T20:28:37.685Z,16.10
2019-05-11T20:31:04.597Z,16.20
2019-05-11T20:33:31.539Z,16.10
2019-05-11T20:35:58.481Z,15.90
2019-05-11T20:38:27.549Z,15.80
2019-05-11T20:40:54.171Z,15.60
2019-05-11T20:43:33.419Z,15.60
2019-05-11T20:46:00.381Z,15.50
2019-05-11T20:48:27.928Z,15.60
2019-05-11T20:50:57.559Z,15.60
2019-05-11T20:53:24.721Z,15.60
2019-05-11T20:56:11.833Z,15.60
2019-05-11T21:01:41.051Z,15.50
2019-05-11T21:04:08.676Z,15.40
2019-05-11T21:09:18.540Z,15.40
2019-05-11T21:11:47.821Z,15.30
2019-05-11T21:14:22.790Z,15.30
2019-05-11T21:16:48.486Z,15.30
2019-05-11T21:19:15.500Z,15.40
2019-05-11T21:21:52.827Z,15.20
2019-05-11T21:24:15.888Z,15.20
2019-05-11T21:26:58.444Z,15.00
2019-05-11T21:29:28.264Z,14.90
2019-05-11T21:31:56.075Z,15.00
2019-05-11T21:34:23.226Z,15.10
2019-05-11T21:36:50.184Z,15.20
2019-05-11T21:39:17.150Z,15.10
2019-05-11T21:41:58.490Z,15.20
2019-05-11T21:44:27.736Z,15.20
2019-05-11T21:46:54.303Z,15.10
2019-05-11T21:49:21.424Z,15.00
2019-05-11T21:52:03.382Z,15.00
2019-05-11T21:54:16.923Z,14.90
2019-05-11T21:56:43.933Z,14.90
2019-05-11T21:59:15.640Z,14.80
2019-05-11T22:01:42.745Z,14.90
2019-05-11T22:04:11.321Z,14.70
2019-05-11T22:06:40.364Z,14.80
2019-05-11T22:09:08.231Z,14.80
2019-05-11T22:11:38.066Z,14.70
2019-05-11T22:14:05.513Z,14.70
2019-05-11T22:16:32.440Z,14.70
2019-05-11T22:18:59.709Z,14.70
2019-05-11T22:21:27.993Z,14.60
2019-05-11T22:23:55.038Z,14.60
2019-05-11T22:26:24.774Z,14.50
2019-05-11T22:28:51.875Z,14.50
2019-05-11T22:31:18.899Z,14.50
2019-05-11T22:33:47.895Z,14.50
2019-05-11T22:36:14.910Z,14.40
2019-05-11T22:38:42.557Z,14.40
2019-05-11T22:41:10.071Z,14.30
2019-05-11T22:43:37.870Z,14.40
2019-05-11T22:46:05.050Z,14.20
2019-05-11T22:48:32.274Z,14.30
2019-05-11T22:50:59.274Z,14.30
2019-05-11T22:53:39.971Z,14.20
2019-05-11T22:55:55.187Z,14.20
2019-05-11T22:58:22.364Z,14.20
2019-05-11T23:00:49.119Z,14.10
2019-05-11T23:03:18.592Z,14.10
2019-05-11T23:05:47.586Z,14.10
2019-05-11T23:08:14.182Z,14.10
2019-05-11T23:10:41.315Z,14.10
2019-05-11T23:13:11.096Z,14.00
2019-05-11T23:15:40.056Z,14.10
2019-05-11T23:18:05.637Z,14.10
2019-05-11T23:20:32.698Z,14.00
2019-05-11T23:23:01.640Z,13.90
2019-05-11T23:25:28.875Z,13.80
2019-05-11T23:27:58.624Z,13.80
2019-05-11T23:30:24.557Z,13.70
2019-05-11T23:32:51.519Z,13.70
2019-05-11T23:35:21.000Z,13.60
2019-05-11T23:37:49.660Z,13.60
2019-05-11T23:40:18.726Z,13.50
2019-05-11T23:42:45.828Z,13.60
2019-05-11T23:45:13.686Z,13.40
2019-05-11T23:47:40.550Z,13.50
2019-05-11T23:50:08.376Z,13.60
2019-05-11T23:52:38.241Z,13.60
2019-05-11T23:55:08.188Z,13.60
2019-05-11T23:57:35.068Z,13.60
